sensor_id;sensor_type;location;lat;lon;timestamp;pressure;altitude;pressure_sealevel;temperature;humidity
7376;BME280;3728;42.266;24.944;2023-10-19T00:01:17;99792.19;;;10.44;100.00
7376;BME280;3728;42.266;24.944;2023-10-19T00:03:45;99789.09;;;10.42;100.00
7376;BME280;3728;42.266;24.944;2023-10-19T00:06:13;99781.94;;;10.47;100.00
7376;BME280;3728;42.266;24.944;2023-10-19T00:08:40;99787.75;;;10.44;100.00
7376;BME280;3728;42.266;24.944;2023-10-19T00:11:09;99790.47;;;10.39;100.00
7376;BME280;3728;42.266;24.944;2023-10-19T00:13:48;99786.38;;;10.47;100.00
7376;BME280;3728;42.266;24.944;2023-10-19T00:16:17;99780.19;;;10.43;100.00
7376;BME280;3728;42.266;24.944;2023-10-19T00:18:49;99777.66;;;10.38;100.00
7376;BME280;3728;42.266;24.944;2023-10-19T00:21:19;99775.34;;;10.50;100.00
7376;BME280;3728;42.266;24.944;2023-10-19T00:23:47;99773.19;;;10.24;100.00
7376;BME280;3728;42.266;24.944;2023-10-19T00:26:18;99774.53;;;10.08;100.00
7376;BME280;3728;42.266;24.944;2023-10-19T00:28:55;99773.63;;;9.99;100.00
7376;BME280;3728;42.266;24.944;2023-10-19T00:31:25;99769.19;;;10.00;100.00
7376;BME280;3728;42.266;24.944;2023-10-19T00:34:00;99771.97;;;9.90;100.00
7376;BME280;3728;42.266;24.944;2023-10-19T00:36:30;99771.56;;;9.69;100.00
7376;BME280;3728;42.266;24.944;2023-10-19T00:38:57;99769.59;;;9.61;100.00
7376;BME280;3728;42.266;24.944;2023-10-19T00:41:27;99764.94;;;9.58;100.00
7376;BME280;3728;42.266;24.944;2023-10-19T00:43:59;99758.13;;;9.43;100.00
7376;BME280;3728;42.266;24.944;2023-10-19T00:46:34;99753.53;;;9.35;100.00
7376;BME280;3728;42.266;24.944;2023-10-19T00:49:11;99751.38;;;9.24;100.00
7376;BME280;3728;42.266;24.944;2023-10-19T00:51:47;99743.78;;;9.41;100.00
7376;BME280;3728;42.266;24.944;2023-10-19T00:54:21;99746.81;;;9.16;100.00
7376;BME280;3728;42.266;24.944;2023-10-19T00:57:03;99748.41;;;8.93;100.00
7376;BME280;3728;42.266;24.944;2023-10-19T00:59:35;99750.34;;;9.06;100.00
7376;BME280;3728;42.266;24.944;2023-10-19T01:02:19;99745.66;;;9.22;100.00
7376;BME280;3728;42.266;24.944;2023-10-19T01:04:49;99753.41;;;9.27;100.00
7376;BME280;3728;42.266;24.944;2023-10-19T01:07:32;99746.28;;;8.95;100.00
7376;BME280;3728;42.266;24.944;2023-10-19T01:10:06;99741.06;;;8.76;100.00
7376;BME280;3728;42.266;24.944;2023-10-19T01:12:35;99734.56;;;8.74;100.00
7376;BME280;3728;42.266;24.944;2023-10-19T01:15:13;99740.66;;;8.69;100.00
7376;BME280;3728;42.266;24.944;2023-10-19T01:17:48;99731.91;;;8.79;100.00
7376;BME280;3728;42.266;24.944;2023-10-19T01:20:22;99733.59;;;8.88;100.00
7376;BME280;3728;42.266;24.944;2023-10-19T01:23:01;99727.16;;;8.81;100.00
7376;BME280;3728;42.266;24.944;2023-10-19T01:25:50;99724.41;;;8.91;100.00
7376;BME280;3728;42.266;24.944;2023-10-19T01:28:23;99725.84;;;8.83;100.00
7376;BME280;3728;42.266;24.944;2023-10-19T01:33:58;99712.91;;;9.11;100.00
7376;BME280;3728;42.266;24.944;2023-10-19T01:36:33;99712.34;;;9.14;100.00
7376;BME280;3728;42.266;24.944;2023-10-19T01:39:11;99717.66;;;9.09;100.00
7376;BME280;3728;42.266;24.944;2023-10-19T01:41:39;99722.19;;;8.84;100.00
7376;BME280;3728;42.266;24.944;2023-10-19T01:44:08;99720.97;;;8.77;100.00
7376;BME280;3728;42.266;24.944;2023-10-19T01:46:41;99723.44;;;8.68;100.00
7376;BME280;3728;42.266;24.944;2023-10-19T01:49:14;99722.97;;;8.85;100.00
7376;BME280;3728;42.266;24.944;2023-10-19T01:51:52;99722.19;;;8.84;100.00
7376;BME280;3728;42.266;24.944;2023-10-19T01:54:22;99717.81;;;8.80;100.00
7376;BME280;3728;42.266;24.944;2023-10-19T01:56:55;99725.19;;;8.54;100.00
7376;BME280;3728;42.266;24.944;2023-10-19T01:59:24;99713.34;;;8.62;100.00
7376;BME280;3728;42.266;24.944;2023-10-19T02:01:57;99717.44;;;8.68;100.00
7376;BME280;3728;42.266;24.944;2023-10-19T02:04:25;99717.25;;;8.83;100.00
7376;BME280;3728;42.266;24.944;2023-10-19T02:06:53;99710.53;;;8.58;100.00
7376;BME280;3728;42.266;24.944;2023-10-19T02:09:21;99713.25;;;8.48;100.00
7376;BME280;3728;42.266;24.944;2023-10-19T02:11:57;99719.50;;;8.52;100.00
7376;BME280;3728;42.266;24.944;2023-10-19T02:14:27;99713.41;;;8.38;100.00
7376;BME280;3728;42.266;24.944;2023-10-19T02:17:00;99714.69;;;8.41;100.00
7376;BME280;3728;42.266;24.944;2023-10-19T02:19:31;99720.94;;;8.40;100.00
7376;BME280;3728;42.266;24.944;2023-10-19T02:22:01;99724.38;;;8.35;100.00
7376;BME280;3728;42.266;24.944;2023-10-19T02:24:38;99720.66;;;8.41;100.00
7376;BME280;3728;42.266;24.944;2023-10-19T02:27:06;99723.69;;;8.24;100.00
7376;BME280;3728;42.266;24.944;2023-10-19T02:29:42;99726.50;;;8.33;100.00
7376;BME280;3728;42.266;24.944;2023-10-19T02:32:10;99726.31;;;8.48;100.00
7376;BME280;3728;42.266;24.944;2023-10-19T02:34:37;99731.94;;;8.55;100.00
7376;BME280;3728;42.266;24.944;2023-10-19T02:37:05;99730.84;;;8.61;100.00
7376;BME280;3728;42.266;24.944;2023-10-19T02:39:35;99740.53;;;8.79;100.00
7376;BME280;3728;42.266;24.944;2023-10-19T02:42:03;99738.81;;;8.70;100.00
7376;BME280;3728;42.266;24.944;2023-10-19T02:44:31;99734.72;;;8.64;100.00
7376;BME280;3728;42.266;24.944;2023-10-19T02:46:58;99733.75;;;8.36;100.00
7376;BME280;3728;42.266;24.944;2023-10-19T02:49:29;99735.94;;;8.71;100.00
7376;BME280;3728;42.266;24.944;2023-10-19T02:51:57;99733.09;;;8.49;100.00
7376;BME280;3728;42.266;24.944;2023-10-19T02:54:31;99735.19;;;8.29;100.00
7376;BME280;3728;42.266;24.944;2023-10-19T02:57:02;99734.34;;;8.33;100.00
7376;BME280;3728;42.266;24.944;2023-10-19T02:59:34;99731.78;;;8.28;100.00
7376;BME280;3728;42.266;24.944;2023-10-19T03:02:02;99736.16;;;8.33;100.00
7376;BME280;3728;42.266;24.944;2023-10-19T03:04:42;99731.72;;;8.33;100.00
7376;BME280;3728;42.266;24.944;2023-10-19T03:07:11;99740.84;;;8.54;100.00
7376;BME280;3728;42.266;24.944;2023-10-19T03:09:40;99738.50;;;8.53;100.00
7376;BME280;3728;42.266;24.944;2023-10-19T03:12:16;99742.34;;;8.79;100.00
7376;BME280;3728;42.266;24.944;2023-10-19T03:14:45;99737.59;;;8.62;100.00
7376;BME280;3728;42.266;24.944;2023-10-19T03:17:16;99739.09;;;8.68;100.00
7376;BME280;3728;42.266;24.944;2023-10-19T03:19:44;99735.16;;;8.71;100.00
7376;BME280;3728;42.266;24.944;2023-10-19T03:22:13;99739.59;;;8.70;100.00
7376;BME280;3728;42.266;24.944;2023-10-19T03:24:41;99738.47;;;8.76;100.00
7376;BME280;3728;42.266;24.944;2023-10-19T03:27:13;99739.31;;;8.72;100.00
7376;BME280;3728;42.266;24.944;2023-10-19T03:29:52;99747.38;;;8.75;100.00
7376;BME280;3728;42.266;24.944;2023-10-19T03:32:22;99741.50;;;8.83;100.00
7376;BME280;3728;42.266;24.944;2023-10-19T03:34:57;99743.97;;;8.75;100.00
7376;BME280;3728;42.266;24.944;2023-10-19T03:37:28;99735.09;;;8.76;100.00
7376;BME280;3728;42.266;24.944;2023-10-19T03:39:59;99744.03;;;8.70;100.00
7376;BME280;3728;42.266;24.944;2023-10-19T03:42:30;99742.34;;;8.79;100.00
7376;BME280;3728;42.266;24.944;2023-10-19T03:45:07;99743.00;;;8.89;100.00
7376;BME280;3728;42.266;24.944;2023-10-19T03:47:41;99735.66;;;8.91;100.00
7376;BME280;3728;42.266;24.944;2023-10-19T03:50:11;99741.84;;;8.95;100.00
7376;BME280;3728;42.266;24.944;2023-10-19T03:52:47;99742.94;;;8.94;100.00
7376;BME280;3728;42.266;24.944;2023-10-19T03:55:15;99740.88;;;8.73;100.00
7376;BME280;3728;42.266;24.944;2023-10-19T03:57:46;99726.66;;;8.60;100.00
7376;BME280;3728;42.266;24.944;2023-10-19T04:00:17;99724.13;;;8.55;100.00
7376;BME280;3728;42.266;24.944;2023-10-19T04:02:46;99721.31;;;8.52;100.00
7376;BME280;3728;42.266;24.944;2023-10-19T04:05:14;99724.28;;;8.64;100.00
7376;BME280;3728;42.266;24.944;2023-10-19T04:07:47;99723.22;;;8.83;100.00
7376;BME280;3728;42.266;24.944;2023-10-19T04:10:22;99709.47;;;8.97;100.00
7376;BME280;3728;42.266;24.944;2023-10-19T04:13:02;99714.53;;;9.07;100.00
7376;BME280;3728;42.266;24.944;2023-10-19T04:15:31;99713.09;;;9.14;100.00
7376;BME280;3728;42.266;24.944;2023-10-19T04:18:03;99713.66;;;9.30;100.00
7376;BME280;3728;42.266;24.944;2023-10-19T04:20:38;99723.00;;;9.17;100.00
7376;BME280;3728;42.266;24.944;2023-10-19T04:23:09;99731.66;;;9.31;100.00
7376;BME280;3728;42.266;24.944;2023-10-19T04:25:41;99731.88;;;9.35;100.00
7376;BME280;3728;42.266;24.944;2023-10-19T04:28:09;99732.94;;;9.15;100.00
7376;BME280;3728;42.266;24.944;2023-10-19T04:30:37;99738.53;;;9.27;100.00
7376;BME280;3728;42.266;24.944;2023-10-19T04:33:07;99737.31;;;9.20;100.00
7376;BME280;3728;42.266;24.944;2023-10-19T04:35:38;99727.19;;;9.00;100.00
7376;BME280;3728;42.266;24.944;2023-10-19T04:38:08;99730.84;;;8.99;100.00
7376;BME280;3728;42.266;24.944;2023-10-19T04:40:36;99733.66;;;8.83;100.00
7376;BME280;3728;42.266;24.944;2023-10-19T04:43:03;99738.56;;;8.71;100.00
7376;BME280;3728;42.266;24.944;2023-10-19T04:45:34;99734.50;;;8.60;100.00
7376;BME280;3728;42.266;24.944;2023-10-19T04:48:02;99733.59;;;8.70;100.00
7376;BME280;3728;42.266;24.944;2023-10-19T04:50:31;99735.34;;;8.74;100.00
7376;BME280;3728;42.266;24.944;2023-10-19T04:52:59;99734.19;;;9.04;100.00
7376;BME280;3728;42.266;24.944;2023-10-19T04:55:26;99728.16;;;9.04;100.00
7376;BME280;3728;42.266;24.944;2023-10-19T04:57:56;99730.91;;;8.75;100.00
7376;BME280;3728;42.266;24.944;2023-10-19T05:00:25;99723.50;;;8.63;100.00
7376;BME280;3728;42.266;24.944;2023-10-19T05:02:54;99729.22;;;8.65;100.00
7376;BME280;3728;42.266;24.944;2023-10-19T05:05:22;99738.56;;;8.71;100.00
7376;BME280;3728;42.266;24.944;2023-10-19T05:07:50;99728.72;;;8.63;100.00
7376;BME280;3728;42.266;24.944;2023-10-19T05:10:18;99736.38;;;8.78;100.00
7376;BME280;3728;42.266;24.944;2023-10-19T05:12:46;99729.88;;;8.76;100.00
7376;BME280;3728;42.266;24.944;2023-10-19T05:15:15;99743.97;;;8.93;100.00
7376;BME280;3728;42.266;24.944;2023-10-19T05:17:43;99737.22;;;8.92;100.00
7376;BME280;3728;42.266;24.944;2023-10-19T05:20:14;99751.63;;;8.90;100.00
7376;BME280;3728;42.266;24.944;2023-10-19T05:22:41;99748.56;;;9.02;100.00
7376;BME280;3728;42.266;24.944;2023-10-19T05:25:09;99748.25;;;9.22;100.00
7376;BME280;3728;42.266;24.944;2023-10-19T05:27:38;99747.19;;;9.41;100.00
7376;BME280;3728;42.266;24.944;2023-10-19T05:30:06;99742.97;;;9.59;100.00
7376;BME280;3728;42.266;24.944;2023-10-19T05:32:37;99743.72;;;9.46;100.00
7376;BME280;3728;42.266;24.944;2023-10-19T05:35:05;99752.16;;;9.24;100.00
7376;BME280;3728;42.266;24.944;2023-10-19T05:37:33;99756.41;;;9.20;100.00
7376;BME280;3728;42.266;24.944;2023-10-19T05:40:01;99756.84;;;9.09;100.00
7376;BME280;3728;42.266;24.944;2023-10-19T05:42:31;99758.16;;;9.25;100.00
7376;BME280;3728;42.266;24.944;2023-10-19T05:45:01;99771.16;;;9.30;100.00
7376;BME280;3728;42.266;24.944;2023-10-19T05:47:32;99769.41;;;9.57;100.00
7376;BME280;3728;42.266;24.944;2023-10-19T05:50:00;99768.97;;;9.96;100.00
7376;BME280;3728;42.266;24.944;2023-10-19T05:52:28;99772.78;;;10.04;100.00
7376;BME280;3728;42.266;24.944;2023-10-19T05:54:56;99766.34;;;9.96;100.00
7376;BME280;3728;42.266;24.944;2023-10-19T05:57:26;99776.28;;;10.13;100.00
7376;BME280;3728;42.266;24.944;2023-10-19T05:59:54;99775.53;;;10.26;100.00
7376;BME280;3728;42.266;24.944;2023-10-19T06:02:22;99769.13;;;10.18;100.00
7376;BME280;3728;42.266;24.944;2023-10-19T06:04:58;99772.97;;;10.07;100.00
7376;BME280;3728;42.266;24.944;2023-10-19T06:07:31;99767.38;;;10.27;100.00
7376;BME280;3728;42.266;24.944;2023-10-19T06:09:59;99758.38;;;10.47;100.00
7376;BME280;3728;42.266;24.944;2023-10-19T06:12:32;99767.28;;;10.60;100.00
7376;BME280;3728;42.266;24.944;2023-10-19T06:15:04;99767.66;;;10.67;100.00
7376;BME280;3728;42.266;24.944;2023-10-19T06:17:32;99768.06;;;10.96;99.95
7376;BME280;3728;42.266;24.944;2023-10-19T06:20:00;99765.22;;;11.06;98.92
7376;BME280;3728;42.266;24.944;2023-10-19T06:22:28;99771.31;;;11.15;99.29
7376;BME280;3728;42.266;24.944;2023-10-19T06:24:55;99765.84;;;11.25;99.93
7376;BME280;3728;42.266;24.944;2023-10-19T06:27:23;99770.56;;;11.37;99.40
7376;BME280;3728;42.266;24.944;2023-10-19T06:29:50;99770.84;;;11.80;98.04
7376;BME280;3728;42.266;24.944;2023-10-19T06:32:19;99767.00;;;11.86;96.34
7376;BME280;3728;42.266;24.944;2023-10-19T06:34:48;99776.78;;;11.94;96.47
7376;BME280;3728;42.266;24.944;2023-10-19T06:37:16;99772.56;;;11.84;97.78
7376;BME280;3728;42.266;24.944;2023-10-19T06:39:44;99773.66;;;11.92;97.91
7376;BME280;3728;42.266;24.944;2023-10-19T06:42:12;99782.59;;;12.13;97.09
7376;BME280;3728;42.266;24.944;2023-10-19T06:44:43;99780.13;;;12.16;98.36
7376;BME280;3728;42.266;24.944;2023-10-19T06:47:11;99777.56;;;12.42;98.42
7376;BME280;3728;42.266;24.944;2023-10-19T06:49:40;99778.22;;;12.65;94.72
7376;BME280;3728;42.266;24.944;2023-10-19T06:52:07;99775.91;;;12.55;96.30
7376;BME280;3728;42.266;24.944;2023-10-19T06:54:38;99781.19;;;12.63;97.62
7376;BME280;3728;42.266;24.944;2023-10-19T06:57:05;99778.22;;;12.56;97.12
7376;BME280;3728;42.266;24.944;2023-10-19T06:59:35;99773.63;;;12.70;95.47
7376;BME280;3728;42.266;24.944;2023-10-19T07:02:03;99775.03;;;12.76;97.67
7376;BME280;3728;42.266;24.944;2023-10-19T07:04:31;99766.69;;;12.83;98.01
7376;BME280;3728;42.266;24.944;2023-10-19T07:07:02;99772.09;;;12.86;97.43
7376;BME280;3728;42.266;24.944;2023-10-19T07:09:30;99784.31;;;12.82;99.53
7376;BME280;3728;42.266;24.944;2023-10-19T07:11:58;99773.81;;;13.17;99.19
7376;BME280;3728;42.266;24.944;2023-10-19T07:14:32;99773.03;;;13.42;97.39
7376;BME280;3728;42.266;24.944;2023-10-19T07:17:00;99778.84;;;13.73;95.76
7376;BME280;3728;42.266;24.944;2023-10-19T07:19:28;99772.00;;;13.89;94.36
7376;BME280;3728;42.266;24.944;2023-10-19T07:21:56;99773.66;;;14.02;92.86
7376;BME280;3728;42.266;24.944;2023-10-19T07:24:31;99770.47;;;14.26;91.45
7376;BME280;3728;42.266;24.944;2023-10-19T07:27:02;99768.69;;;14.47;91.87
7376;BME280;3728;42.266;24.944;2023-10-19T07:29:32;99763.34;;;14.56;91.47
7376;BME280;3728;42.266;24.944;2023-10-19T07:32:00;99770.34;;;14.81;87.91
7376;BME280;3728;42.266;24.944;2023-10-19T07:34:31;99762.78;;;14.91;88.96
7376;BME280;3728;42.266;24.944;2023-10-19T07:37:00;99762.34;;;15.10;86.77
7376;BME280;3728;42.266;24.944;2023-10-19T07:39:28;99768.50;;;15.35;85.39
7376;BME280;3728;42.266;24.944;2023-10-19T07:41:59;99761.84;;;15.29;85.82
7376;BME280;3728;42.266;24.944;2023-10-19T07:44:26;99761.84;;;15.29;85.87
7376;BME280;3728;42.266;24.944;2023-10-19T07:46:57;99756.22;;;15.18;86.83
7376;BME280;3728;42.266;24.944;2023-10-19T07:49:25;99760.13;;;15.33;87.77
7376;BME280;3728;42.266;24.944;2023-10-19T07:51:53;99759.47;;;15.56;87.45
7376;BME280;3728;42.266;24.944;2023-10-19T07:54:24;99757.47;;;15.53;86.53
7376;BME280;3728;42.266;24.944;2023-10-19T07:56:54;99766.09;;;15.74;84.95
7376;BME280;3728;42.266;24.944;2023-10-19T07:59:21;99753.53;;;15.71;84.20
7376;BME280;3728;42.266;24.944;2023-10-19T08:01:49;99754.88;;;15.65;86.11
7376;BME280;3728;42.266;24.944;2023-10-19T08:04:17;99752.78;;;15.83;86.38
7376;BME280;3728;42.266;24.944;2023-10-19T08:06:44;99747.94;;;15.73;85.69
7376;BME280;3728;42.266;24.944;2023-10-19T08:09:17;99747.63;;;15.87;87.16
7376;BME280;3728;42.266;24.944;2023-10-19T08:11:52;99754.69;;;16.19;84.45
7376;BME280;3728;42.266;24.944;2023-10-19T08:14:25;99762.41;;;16.36;82.31
7376;BME280;3728;42.266;24.944;2023-10-19T08:16:53;99758.88;;;16.32;81.21
7376;BME280;3728;42.266;24.944;2023-10-19T08:19:23;99753.34;;;16.61;81.39
7376;BME280;3728;42.266;24.944;2023-10-19T08:21:51;99754.69;;;16.67;80.24
7376;BME280;3728;42.266;24.944;2023-10-19T08:24:19;99753.31;;;16.85;79.60
7376;BME280;3728;42.266;24.944;2023-10-19T08:26:47;99754.03;;;16.58;80.71
7376;BME280;3728;42.266;24.944;2023-10-19T08:29:17;99758.06;;;17.07;79.46
7376;BME280;3728;42.266;24.944;2023-10-19T08:31:46;99750.88;;;16.92;81.13
7376;BME280;3728;42.266;24.944;2023-10-19T08:34:13;99753.56;;;17.36;78.36
7376;BME280;3728;42.266;24.944;2023-10-19T08:36:42;99744.97;;;17.11;78.01
7376;BME280;3728;42.266;24.944;2023-10-19T08:39:10;99739.13;;;17.05;79.95
7376;BME280;3728;42.266;24.944;2023-10-19T08:41:39;99731.63;;;17.35;78.91
7376;BME280;3728;42.266;24.944;2023-10-19T08:44:07;99734.00;;;17.68;76.33
7376;BME280;3728;42.266;24.944;2023-10-19T08:46:40;99733.00;;;17.45;78.60
7376;BME280;3728;42.266;24.944;2023-10-19T08:49:15;99739.16;;;17.49;78.70
7376;BME280;3728;42.266;24.944;2023-10-19T08:51:44;99735.69;;;17.76;76.66
7376;BME280;3728;42.266;24.944;2023-10-19T08:54:13;99736.72;;;17.87;77.71
7376;BME280;3728;42.266;24.944;2023-10-19T08:56:42;99730.56;;;17.99;76.45
7376;BME280;3728;42.266;24.944;2023-10-19T08:59:11;99727.72;;;18.23;75.21
7376;BME280;3728;42.266;24.944;2023-10-19T09:01:38;99725.38;;;18.37;74.35
7376;BME280;3728;42.266;24.944;2023-10-19T09:04:06;99721.59;;;18.54;74.30
7376;BME280;3728;42.266;24.944;2023-10-19T09:06:35;99717.91;;;18.58;73.02
7376;BME280;3728;42.266;24.944;2023-10-19T09:09:10;99717.34;;;18.68;72.70
7376;BME280;3728;42.266;24.944;2023-10-19T09:11:48;99717.16;;;18.96;70.89
7376;BME280;3728;42.266;24.944;2023-10-19T09:14:31;99708.94;;;19.24;67.13
7376;BME280;3728;42.266;24.944;2023-10-19T09:17:00;99709.16;;;19.15;67.07
7376;BME280;3728;42.266;24.944;2023-10-19T09:19:41;99704.16;;;19.10;68.90
7376;BME280;3728;42.266;24.944;2023-10-19T09:22:10;99703.97;;;19.22;68.78
7376;BME280;3728;42.266;24.944;2023-10-19T09:24:49;99700.91;;;19.20;67.63
7376;BME280;3728;42.266;24.944;2023-10-19T09:27:20;99692.28;;;19.04;68.51
7376;BME280;3728;42.266;24.944;2023-10-19T09:29:49;99692.47;;;19.56;66.19
7376;BME280;3728;42.266;24.944;2023-10-19T09:32:18;99696.19;;;19.52;64.27
7376;BME280;3728;42.266;24.944;2023-10-19T09:34:47;99693.81;;;19.47;65.87
7376;BME280;3728;42.266;24.944;2023-10-19T09:37:20;99688.41;;;19.40;66.42
7376;BME280;3728;42.266;24.944;2023-10-19T09:39:48;99674.09;;;19.48;66.33
7376;BME280;3728;42.266;24.944;2023-10-19T09:42:16;99674.81;;;19.45;66.81
7376;BME280;3728;42.266;24.944;2023-10-19T09:44:48;99674.53;;;19.76;65.98
7376;BME280;3728;42.266;24.944;2023-10-19T09:47:35;99669.78;;;19.85;63.55
7376;BME280;3728;42.266;24.944;2023-10-19T09:50:06;99668.25;;;20.14;62.06
7376;BME280;3728;42.266;24.944;2023-10-19T09:52:35;99666.91;;;20.23;60.55
7376;BME280;3728;42.266;24.944;2023-10-19T09:55:21;99667.53;;;20.13;61.12
7376;BME280;3728;42.266;24.944;2023-10-19T09:58:04;99663.22;;;20.31;59.13
7376;BME280;3728;42.266;24.944;2023-10-19T10:00:45;99654.66;;;20.19;60.53
7376;BME280;3728;42.266;24.944;2023-10-19T10:03:44;99655.78;;;20.44;57.67
7376;BME280;3728;42.266;24.944;2023-10-19T10:09:00;99651.41;;;20.29;56.89
7376;BME280;3728;42.266;24.944;2023-10-19T10:11:30;99645.72;;;20.30;59.17
7376;BME280;3728;42.266;24.944;2023-10-19T10:13:58;99635.00;;;20.53;57.47
7376;BME280;3728;42.266;24.944;2023-10-19T10:16:27;99628.03;;;20.45;57.81
7376;BME280;3728;42.266;24.944;2023-10-19T10:18:59;99622.25;;;20.69;55.35
7376;BME280;3728;42.266;24.944;2023-10-19T10:21:28;99634.09;;;20.75;55.85
7376;BME280;3728;42.266;24.944;2023-10-19T10:24:00;99616.38;;;21.27;52.81
7376;BME280;3728;42.266;24.944;2023-10-19T10:26:31;99616.75;;;20.92;55.34
7376;BME280;3728;42.266;24.944;2023-10-19T10:29:24;99622.25;;;20.69;57.73
7376;BME280;3728;42.266;24.944;2023-10-19T10:31:53;99620.91;;;21.26;54.97
7376;BME280;3728;42.266;24.944;2023-10-19T10:37:06;99613.22;;;21.18;51.45
7376;BME280;3728;42.266;24.944;2023-10-19T10:39:59;99608.63;;;20.78;52.92
7376;BME280;3728;42.266;24.944;2023-10-19T10:42:27;99604.63;;;20.58;54.05
7376;BME280;3728;42.266;24.944;2023-10-19T10:44:54;99605.72;;;20.53;54.17
7376;BME280;3728;42.266;24.944;2023-10-19T10:47:23;99604.41;;;20.40;53.88
7376;BME280;3728;42.266;24.944;2023-10-19T10:49:58;99595.41;;;20.48;54.55
7376;BME280;3728;42.266;24.944;2023-10-19T10:54:56;99594.78;;;21.46;49.98
7376;BME280;3728;42.266;24.944;2023-10-19T10:57:31;99585.28;;;21.45;52.27
7376;BME280;3728;42.266;24.944;2023-10-19T11:00:29;99586.06;;;21.49;51.34
7376;BME280;3728;42.266;24.944;2023-10-19T11:03:08;99584.47;;;21.92;49.57
7376;BME280;3728;42.266;24.944;2023-10-19T11:05:37;99581.47;;;22.04;47.47
7376;BME280;3728;42.266;24.944;2023-10-19T11:08:06;99572.28;;;21.94;48.51
7376;BME280;3728;42.266;24.944;2023-10-19T11:10:36;99568.16;;;22.07;49.58
7376;BME280;3728;42.266;24.944;2023-10-19T11:13:05;99564.72;;;22.07;47.49
7376;BME280;3728;42.266;24.944;2023-10-19T11:15:34;99559.16;;;22.51;48.21
7376;BME280;3728;42.266;24.944;2023-10-19T11:18:06;99556.94;;;23.09;46.11
7376;BME280;3728;42.266;24.944;2023-10-19T11:20:39;99558.13;;;23.08;46.38
7376;BME280;3728;42.266;24.944;2023-10-19T11:23:07;99550.84;;;22.98;47.38
7376;BME280;3728;42.266;24.944;2023-10-19T11:25:35;99543.59;;;23.37;45.89
7376;BME280;3728;42.266;24.944;2023-10-19T11:28:16;99536.34;;;23.38;45.41
7376;BME280;3728;42.266;24.944;2023-10-19T11:30:46;99540.13;;;23.30;45.88
7376;BME280;3728;42.266;24.944;2023-10-19T11:33:15;99534.06;;;23.43;44.90
7376;BME280;3728;42.266;24.944;2023-10-19T11:35:45;99527.16;;;23.28;45.68
7376;BME280;3728;42.266;24.944;2023-10-19T11:38:12;99532.53;;;23.42;44.65
7376;BME280;3728;42.266;24.944;2023-10-19T11:40:40;99522.41;;;23.96;43.05
7376;BME280;3728;42.266;24.944;2023-10-19T11:43:08;99517.03;;;24.10;43.88
7376;BME280;3728;42.266;24.944;2023-10-19T11:45:35;99517.88;;;24.62;42.21
7376;BME280;3728;42.266;24.944;2023-10-19T11:48:03;99510.41;;;24.90;41.47
7376;BME280;3728;42.266;24.944;2023-10-19T11:50:31;99516.09;;;24.99;40.22
7376;BME280;3728;42.266;24.944;2023-10-19T11:52:59;99503.84;;;24.98;39.97
7376;BME280;3728;42.266;24.944;2023-10-19T11:55:26;99501.13;;;25.05;40.50
7376;BME280;3728;42.266;24.944;2023-10-19T11:57:54;99488.66;;;25.26;40.27
7376;BME280;3728;42.266;24.944;2023-10-19T12:00:23;99491.56;;;25.45;38.96
7376;BME280;3728;42.266;24.944;2023-10-19T12:03:00;99486.53;;;25.06;39.88
7376;BME280;3728;42.266;24.944;2023-10-19T12:05:29;99488.06;;;25.07;40.02
7376;BME280;3728;42.266;24.944;2023-10-19T12:07:57;99489.00;;;25.65;37.48
7376;BME280;3728;42.266;24.944;2023-10-19T12:10:24;99497.72;;;25.76;36.91
7376;BME280;3728;42.266;24.944;2023-10-19T12:12:59;99499.22;;;25.43;37.59
7376;BME280;3728;42.266;24.944;2023-10-19T12:15:30;99488.56;;;25.36;37.08
7376;BME280;3728;42.266;24.944;2023-10-19T12:17:58;99489.16;;;25.54;37.99
7376;BME280;3728;42.266;24.944;2023-10-19T12:20:27;99483.44;;;25.49;37.23
7376;BME280;3728;42.266;24.944;2023-10-19T12:22:57;99479.56;;;25.53;37.61
7376;BME280;3728;42.266;24.944;2023-10-19T12:25:25;99481.19;;;25.47;37.96
7376;BME280;3728;42.266;24.944;2023-10-19T12:28:16;99476.44;;;25.25;37.61
7376;BME280;3728;42.266;24.944;2023-10-19T12:30:44;99469.72;;;24.58;38.87
7376;BME280;3728;42.266;24.944;2023-10-19T12:33:12;99465.28;;;24.89;39.06
7376;BME280;3728;42.266;24.944;2023-10-19T12:35:43;99468.00;;;25.23;38.24
7376;BME280;3728;42.266;24.944;2023-10-19T12:38:24;99461.84;;;25.63;38.21
7376;BME280;3728;42.266;24.944;2023-10-19T12:40:52;99449.13;;;26.27;36.98
7376;BME280;3728;42.266;24.944;2023-10-19T12:43:22;99440.94;;;26.34;36.39
7376;BME280;3728;42.266;24.944;2023-10-19T12:45:50;99438.09;;;26.45;36.45
7376;BME280;3728;42.266;24.944;2023-10-19T12:48:20;99432.22;;;26.77;36.00
7376;BME280;3728;42.266;24.944;2023-10-19T12:50:48;99429.78;;;26.86;34.30
7376;BME280;3728;42.266;24.944;2023-10-19T12:53:19;99419.06;;;27.05;34.04
7376;BME280;3728;42.266;24.944;2023-10-19T12:55:51;99423.53;;;27.12;34.74
7376;BME280;3728;42.266;24.944;2023-10-19T12:58:19;99432.16;;;27.23;34.64
7376;BME280;3728;42.266;24.944;2023-10-19T13:00:47;99420.97;;;27.05;35.19
7376;BME280;3728;42.266;24.944;2023-10-19T13:03:22;99413.34;;;27.62;34.49
7376;BME280;3728;42.266;24.944;2023-10-19T13:05:51;99404.84;;;28.00;33.24
7376;BME280;3728;42.266;24.944;2023-10-19T13:08:19;99398.97;;;28.05;33.12
7376;BME280;3728;42.266;24.944;2023-10-19T13:10:48;99411.25;;;28.54;32.67
7376;BME280;3728;42.266;24.944;2023-10-19T13:13:19;99405.25;;;28.79;32.21
7376;BME280;3728;42.266;24.944;2023-10-19T13:15:50;99404.16;;;28.76;32.86
7376;BME280;3728;42.266;24.944;2023-10-19T13:18:19;99404.28;;;29.01;32.02
7376;BME280;3728;42.266;24.944;2023-10-19T13:20:48;99396.66;;;28.84;32.88
7376;BME280;3728;42.266;24.944;2023-10-19T13:23:16;99391.75;;;29.24;31.88
7376;BME280;3728;42.266;24.944;2023-10-19T13:25:46;99384.78;;;29.64;30.44
7376;BME280;3728;42.266;24.944;2023-10-19T13:28:21;99380.47;;;29.66;31.92
7376;BME280;3728;42.266;24.944;2023-10-19T13:30:53;99374.13;;;29.86;30.96
7376;BME280;3728;42.266;24.944;2023-10-19T13:33:24;99371.25;;;30.27;30.33
7376;BME280;3728;42.266;24.944;2023-10-19T13:35:52;99367.47;;;30.24;30.59
7376;BME280;3728;42.266;24.944;2023-10-19T13:38:19;99361.09;;;30.31;30.60
7376;BME280;3728;42.266;24.944;2023-10-19T13:40:47;99367.88;;;30.48;30.10